Weather observations for the past three days for
Detroit, Detroit Metropolitan Wayne County Airport
| Date | Time (edt) | Wind (mph) | Vis. (mi.) | Weather | Sky Cond. | Temperature (ºF) | Relative Humidity | Wind Chill (°F) | Heat Index (°F) | Pressure | Precipitation (in) | ||||||
|---|---|---|---|---|---|---|---|---|---|---|---|---|---|---|---|---|---|
| Air | Dwpt | 6 hour | altimeter (in) | sea level (mb) | 1 hr | 3 hr | 6 hr | ||||||||||
| Max. | Min. | ||||||||||||||||
| 07 | 18:53 | W 14 | 10.00 | Partly Cloudy | SCT070 SCT250 | 55 | 27 | 34% | 29.86 | 1011.5 | |||||||
| 07 | 17:53 | W 12 | 10.00 | Mostly Cloudy | BKN080 | 55 | 27 | 34% | 29.87 | 1011.6 | |||||||
| 07 | 16:53 | W 14 G 29 | 10.00 | Mostly Cloudy | BKN085 | 55 | 26.1 | 33% | 29.87 | 1011.6 | |||||||
| 07 | 15:53 | W 21 G 30 | 10.00 | Mostly Cloudy and Breezy | BKN080 BKN090 | 55.9 | 27 | 33% | 29.88 | 1011.9 | |||||||
| 07 | 14:53 | W 16 G 31 | 10.00 | Mostly Cloudy | BKN075 BKN085 | 55.9 | 26.1 | 32% | 29.88 | 1011.9 | |||||||
| 07 | 13:53 | NW 17 G 26 | 10.00 | Mostly Cloudy | BKN060 BKN080 | 55.9 | 28.9 | 57.9 | 46 | 36% | 29.89 | 1012.1 | |||||
| 07 | 12:53 | W 17 G 23 | 10.00 | Mostly Cloudy | BKN060 | 55.9 | 30 | 37% | 29.9 | 1012.6 | |||||||
| 07 | 11:53 | W 12 G 21 | 10.00 | Mostly Cloudy | BKN060 BKN250 | 54 | 28.9 | 38% | 29.9 | 1012.7 | |||||||
| 07 | 10:53 | W 12 G 21 | 10.00 | Mostly Cloudy | SCT050 BKN250 | 53.1 | 28.9 | 40% | 29.9 | 1012.7 | |||||||
| 07 | 09:53 | Vrbl 6 | 10.00 | A Few Clouds | FEW060 FEW230 | 51.1 | 28.9 | 43% | 29.92 | 1013.3 | |||||||
| 07 | 08:53 | W 6 | 10.00 | Partly Cloudy | FEW060 SCT230 | 48.9 | 30.9 | 50% | 47 | 29.92 | 1013.4 | ||||||
| 07 | 07:53 | W 6 | 10.00 | Mostly Cloudy | FEW060 SCT090 BKN240 | 46 | 30.9 | 48 | 42.1 | 56% | 44 | 29.92 | 1013.4 | ||||
| 07 | 06:53 | Calm | 9.00 | Mostly Cloudy | FEW060 BKN085 BKN220 | 44.1 | 28.9 | 55% | 29.9 | 1012.8 | |||||||
| 07 | 05:53 | NW 5 | 9.00 | Overcast | FEW060 BKN085 OVC190 | 43 | 28.9 | 58% | 41 | 29.89 | 1012.3 | ||||||
| 07 | 04:53 | NW 6 | 10.00 | Overcast | SCT060 OVC095 | 45 | 30 | 56% | 42 | 29.9 | 1012.7 | ||||||
| 07 | 03:53 | W 7 | 10.00 | Overcast | SCT060 OVC095 | 46 | 30 | 54% | 43 | 29.9 | 1012.8 | ||||||
| 07 | 02:53 | W 7 | 10.00 | Overcast | OVC100 | 46.9 | 30 | 52% | 44 | 29.9 | 1012.8 | ||||||
| 07 | 01:53 | W 5 | 10.00 | Overcast | OVC100 | 46.9 | 33.1 | 52 | 46.9 | 59% | 45 | 29.91 | 1012.9 | ||||
| 07 | 00:53 | W 5 | 10.00 | Overcast | SCT070 OVC100 | 48.9 | 32 | 52% | 48 | 29.91 | 1013.1 | ||||||
| 06 | 23:53 | W 3 | 10.00 | Overcast | OVC100 | 48.9 | 30.9 | 50% | 29.92 | 1013.2 | |||||||
| 06 | 22:53 | W 7 | 10.00 | Mostly Cloudy | BKN090 | 51.1 | 28.9 | 43% | 29.93 | 1013.6 | |||||||
| 06 | 21:53 | Calm | 10.00 | Mostly Cloudy | SCT075 BKN090 | 51.1 | 28.9 | 43% | 29.92 | 1013.2 | |||||||
| 06 | 20:53 | W 3 | 10.00 | Overcast | OVC085 | 52 | 28 | 40% | 29.91 | 1013.0 | |||||||
| 06 | 19:53 | NW 7 | 10.00 | Overcast | BKN080 OVC200 | 52 | 28.9 | 55.9 | 52 | 41% | 29.9 | 1012.8 | |||||
| 06 | 18:53 | NW 7 | 10.00 | Overcast | FEW065 BKN080 OVC210 | 53.1 | 28.9 | 40% | 29.9 | 1012.6 | |||||||
| 06 | 17:53 | Vrbl 3 | 10.00 | Mostly Cloudy | FEW065 SCT080 BKN210 | 54 | 27 | 35% | 29.9 | 1012.6 | |||||||
| 06 | 16:53 | Vrbl 7 | 10.00 | Mostly Cloudy | BKN065 BKN190 | 53.1 | 28 | 38% | 29.89 | 1012.5 | |||||||
| 06 | 15:53 | W 10 | 10.00 | Mostly Cloudy | SCT060 BKN140 | 54 | 28.9 | 38% | 29.9 | 1012.6 | |||||||
| 06 | 14:53 | NW 12 G 16 | 10.00 | Mostly Cloudy | SCT055 BKN140 | 55 | 30 | 38% | 29.9 | 1012.7 | |||||||
| 06 | 13:53 | NW 12 G 20 | 10.00 | Overcast | SCT055 OVC140 | 53.1 | 30 | 55 | 46 | 41% | 29.9 | 1012.7 | |||||
| 06 | 12:53 | NW 14 | 10.00 | Mostly Cloudy | SCT055 BKN140 BKN250 | 53.1 | 28.9 | 40% | 29.9 | 1012.6 | |||||||
| 06 | 11:53 | NW 10 | 10.00 | Mostly Cloudy | SCT055 SCT085 BKN250 | 55 | 32 | 42% | 29.89 | 1012.2 | |||||||
| 06 | 10:53 | W 6 | 10.00 | Mostly Cloudy | FEW039 SCT075 BKN250 | 53.1 | 30.9 | 43% | 29.88 | 1011.9 | |||||||
| 06 | 09:53 | NW 13 G 18 | 10.00 | Mostly Cloudy | FEW031 SCT065 BKN250 | 52 | 33.1 | 49% | 29.87 | 1011.6 | |||||||
| 06 | 08:53 | NW 8 | 10.00 | Mostly Cloudy | FEW026 SCT065 BKN250 | 48.9 | 36 | 61% | 46 | 29.85 | 1011.0 | ||||||
| 06 | 07:53 | NW 8 | 10.00 | Overcast | FEW060 BKN095 OVC230 | 46.9 | 34 | 46.9 | 46 | 61% | 44 | 29.83 | 1010.4 | ||||
| 06 | 06:53 | NW 6 | 10.00 | Overcast | FEW060 BKN090 OVC230 | 46 | 33.1 | 61% | 44 | 29.81 | 1009.7 | ||||||
| 06 | 05:53 | NW 6 | 9.00 | Overcast | FEW055 BKN085 OVC180 | 46.9 | 33.1 | 59% | 45 | 29.79 | 1009.0 | ||||||
| 06 | 04:53 | NW 3 | 9.00 | Overcast | FEW055 BKN090 OVC190 | 46.9 | 33.1 | 59% | 29.78 | 1008.6 | |||||||
| 06 | 03:53 | NW 5 | 9.00 | Overcast | FEW055 BKN090 OVC170 | 46.9 | 36 | 66% | 45 | 29.78 | 1008.5 | ||||||
| 06 | 02:53 | SW 5 | 9.00 | Overcast | SCT055 OVC080 | 46.9 | 42.1 | 83% | 45 | 29.79 | 1008.8 | ||||||
| 06 | 01:53 | SW 9 | 10.00 | Overcast | OVC075 | 46.9 | 42.1 | 53.1 | 46.9 | 83% | 43 | 29.8 | 1009.1 | ||||
| 06 | 00:53 | S 7 | 9.00 | Overcast | SCT055 OVC070 | 46.9 | 42.1 | 83% | 44 | 29.8 | 1009.1 | ||||||
| 05 | 23:53 | S 3 | 10.00 | Overcast | OVC080 | 48 | 42.1 | 80% | 29.78 | 1008.6 | |||||||
| 05 | 22:53 | S 6 | 9.00 | Light Rain | OVC075 | 48.9 | 39 | 69% | 47 | 29.8 | 1008.9 | ||||||
| 05 | 21:53 | W 5 | 9.00 | Light Rain | OVC075 | 50 | 36 | 59% | 49 | 29.79 | 1008.6 | ||||||
| 05 | 20:53 | W 6 | 10.00 | Overcast | FEW070 OVC090 | 53.1 | 32 | 45% | 29.77 | 1008.0 | |||||||
| 05 | 19:53 | W 8 | 10.00 | Overcast | SCT085 BKN100 OVC130 | 53.1 | 32 | 55 | 53.1 | 45% | 29.76 | 1007.7 | |||||
| 05 | 18:53 | W 8 | 10.00 | Overcast | SCT080 BKN100 OVC160 | 55 | 39 | 55% | 29.75 | 1007.4 | |||||||
| 05 | 17:53 | W 7 | 10.00 | Overcast | FEW030 SCT070 OVC085 | 54 | 41 | 62% | 29.75 | 1007.5 | |||||||
| 05 | 16:53 | SW 7 | 10.00 | Overcast | FEW030 OVC080 | 54 | 41 | 62% | 29.75 | 1007.5 | |||||||
| 05 | 15:53 | W 13 | 10.00 | Overcast | FEW040 OVC070 | 54 | 41 | 62% | 29.76 | 1007.9 | |||||||
| 05 | 14:53 | W 14 | 9.00 | Light Drizzle | FEW025 BKN050 OVC080 | 54 | 41 | 62% | 29.77 | 1008.2 | |||||||
| 05 | 13:53 | W 14 | 10.00 | Overcast | FEW045 BKN080 OVC150 | 54 | 44.1 | 62.1 | 52 | 69% | 29.76 | 1007.7 | 0.01 | 0.01 | |||
| 05 | 12:53 | W 13 | 6.00 | Light Rain | OVC080 | 53.1 | 44.1 | 72% | 29.74 | 1007.2 | |||||||
| 05 | 11:53 | W 13 | 10.00 | Overcast | FEW040 OVC090 | 59 | 37.9 | 46% | 29.74 | 1006.7 | |||||||
| 05 | 10:53 | NW 13 G 23 | 10.00 | Overcast | FEW030 FEW050 OVC085 | 60.1 | 37.9 | 44% | 29.71 | 1005.8 | |||||||
| 05 | 09:53 | W 13 | 10.00 | Overcast | FEW030 SCT090 OVC180 | 62.1 | 48 | 60% | 29.67 | 1004.6 | |||||||
| 05 | 08:53 | SW 12 | 10.00 | Mostly Cloudy | FEW025 SCT100 BKN250 | 60.1 | 51.1 | 72% | 29.64 | 1003.6 | |||||||
| 05 | 07:53 | SW 14 | 10.00 | Overcast | FEW045 BKN090 OVC240 | 57.9 | 52 | 59 | 57 | 81% | 29.65 | 1003.8 | |||||
| 05 | 06:53 | SW 14 | 9.00 | Overcast | FEW045 BKN080 OVC230 | 57.9 | 52 | 81% | 29.6 | 1002.3 | |||||||
| 05 | 05:53 | SW 15 | 9.00 | Overcast | FEW045 BKN075 OVC170 | 57.9 | 51.1 | 78% | 29.59 | 1001.7 | |||||||
| 05 | 04:53 | SW 15 | 9.00 | Overcast | SCT045 BKN080 OVC160 | 57.9 | 52 | 81% | 29.58 | 1001.4 | |||||||
| 05 | 03:53 | SW 14 | 9.00 | Overcast | SCT055 BKN070 OVC100 | 57.9 | 53.1 | 84% | 29.56 | 1000.5 | |||||||
| 05 | 02:53 | SW 12 | 8.00 | Light Rain | SCT050 BKN070 OVC110 | 57.9 | 54 | 87% | 29.55 | 1000.3 | |||||||
| 05 | 01:53 | SW 17 | 9.00 | Light Rain | FEW045 BKN070 OVC120 | 59 | 54 | 66 | 59 | 83% | 29.55 | 1000.5 | 0.01 | 0.15 | |||
| 05 | 00:53 | SW 13 | 8.00 | Light Rain | SCT028 BKN045 OVC075 | 60.1 | 53.1 | 78% | 29.57 | 1001.2 | 0.04 | ||||||
| 04 | 23:53 | S 17 | 10.00 | Mostly Cloudy | FEW080 BKN130 | 66 | 51.1 | 59% | 29.55 | 1000.4 | |||||||
| 04 | 22:53 | S 18 | 10.00 | Mostly Cloudy | BKN120 BKN140 | 66 | 52 | 61% | 29.56 | 1000.8 | 0.1 | ||||||
| 04 | 21:53 | SW 15 | 10.00 | Partly Cloudy | FEW080 SCT120 | 64.9 | 52 | 63% | 29.55 | 1000.5 | |||||||
| 04 | 20:53 | S 10 | 10.00 | Mostly Cloudy | FEW040 BKN080 BKN100 | 62.1 | 55 | 78% | 29.54 | 1000.0 | 0.1 | ||||||
| 04 | 19:53 | W 8 | 8.00 | Thunderstorm Light Rain | SCT055CB BKN080 OVC100 | 63 | 55 | 77 | 63 | 76% | 29.55 | 1000.6 | |||||
| Date | Time (edt) | Wind (mph) | Vis. (mi.) | Weather | Sky Cond. | Air | Dwpt | Max. | Min. | Relative Humidity | Wind Chill (°F) | Heat Index (°F) | altimeter (in) | sea level (mb) | 1 hr | 3 hr | 6 hr |
| 6 hour | |||||||||||||||||
| Temperature (ºF) | Pressure | Precipitation (in) | |||||||||||||||